Time;durP1;ratioP1;P1;durP2;ratioP2;P2;SDS_P1;SDS_P2;PMS_P1;PMS_P2;Temp;Humidity;BMP_temperature;BMP_pressure;BME280_temperature;BME280_humidity;BME280_pressure;Samples;Min_cycle;Max_cycle;Signal;HPM_P1;HPM_P2
2023/12/27 00:02:10;;;;;;;75.57;43.55;;;7.60;80.20;;;;;;5076120;28;20025;-64
2023/12/27 00:04:37;;;;;;;86.65;50.55;;;7.70;80.10;;;;;;5076145;28;20044;-64
2023/12/27 00:07:02;;;;;;;86.47;50.95;;;7.70;80.20;;;;;;5075941;28;20111;-64
2023/12/27 00:09:28;;;;;;;74.43;43.95;;;7.70;80.20;;;;;;5075923;28;20108;-64
2023/12/27 00:11:54;;;;;;;73.97;45.38;;;7.70;80.20;;;;;;5076187;28;20361;-64
2023/12/27 00:14:20;;;;;;;77.18;43.58;;;7.70;80.30;;;;;;5076068;28;20032;-63
2023/12/27 00:16:46;;;;;;;83.72;49.58;;;7.80;80.40;;;;;;5076033;28;20020;-64
2023/12/27 00:19:12;;;;;;;75.22;45.67;;;7.80;80.50;;;;;;5076289;28;20024;-64
2023/12/27 00:21:38;;;;;;;78.72;47.88;;;7.90;80.50;;;;;;5076000;28;20029;-63
2023/12/27 00:24:04;;;;;;;81.03;48.85;;;7.90;80.40;;;;;;5074609;28;20028;-63
2023/12/27 00:26:30;;;;;;;72.18;44.13;;;7.90;80.30;;;;;;5075881;28;20348;-63
2023/12/27 00:28:56;;;;;;;75.40;45.13;;;7.90;80.30;;;;;;5075573;28;20108;-63
2023/12/27 00:31:22;;;;;;;76.45;47.78;;;7.90;80.30;;;;;;5073931;28;20048;-65
2023/12/27 00:33:47;;;;;;;82.72;49.58;;;7.90;80.20;;;;;;5075518;28;20380;-63
2023/12/27 00:36:20;;;;;;;72.15;42.83;;;7.90;80.20;;;;;;5075749;28;20031;-63
2023/12/27 00:38:45;;;;;;;67.30;40.95;;;7.90;80.10;;;;;;5075486;28;20035;-63
2023/12/27 00:41:12;;;;;;;54.17;30.50;;;7.90;80.10;;;;;;5075744;28;20099;-63
2023/12/27 00:43:37;;;;;;;49.58;29.45;;;7.90;80.10;;;;;;5075656;28;20036;-63
2023/12/27 00:46:06;;;;;;;51.70;29.58;;;8.00;80.10;;;;;;5075663;28;20021;-63
2023/12/27 00:48:32;;;;;;;56.72;31.98;;;8.10;80.10;;;;;;5075560;28;20024;-64
2023/12/27 00:50:59;;;;;;;57.97;36.30;;;8.20;80.00;;;;;;5075567;28;20039;-64
2023/12/27 00:53:26;;;;;;;73.05;44.45;;;8.30;80.00;;;;;;5075254;28;20087;-63
2023/12/27 00:55:52;;;;;;;73.13;45.53;;;8.30;79.80;;;;;;5074980;28;20068;-64
2023/12/27 00:58:18;;;;;;;73.10;44.95;;;8.30;79.70;;;;;;5075516;28;20028;-64
2023/12/27 01:00:45;;;;;;;75.85;46.25;;;8.30;79.50;;;;;;5075531;28;20451;-64
2023/12/27 01:03:11;;;;;;;76.57;45.25;;;8.20;79.40;;;;;;5075249;28;20032;-64
2023/12/27 01:05:37;;;;;;;88.43;52.35;;;8.20;79.50;;;;;;5075163;28;20023;-63
2023/12/27 01:08:03;;;;;;;67.57;42.13;;;8.10;79.60;;;;;;5075678;28;20021;-63
2023/12/27 01:10:32;;;;;;;70.18;42.60;;;8.10;79.70;;;;;;5075045;28;20036;-63
2023/12/27 01:12:59;;;;;;;73.28;43.30;;;8.10;79.60;;;;;;5075378;28;20036;-63
2023/12/27 01:15:25;;;;;;;75.25;45.40;;;8.10;79.70;;;;;;5074999;28;20024;-63
2023/12/27 01:17:51;;;;;;;73.65;43.33;;;8.10;79.70;;;;;;5075101;28;20029;-63
2023/12/27 01:20:17;;;;;;;56.97;35.47;;;8.10;79.70;;;;;;5075022;28;20020;-63
2023/12/27 01:22:43;;;;;;;66.53;41.03;;;8.10;79.60;;;;;;5074981;28;20033;-63
2023/12/27 01:25:09;;;;;;;62.63;40.13;;;8.10;79.80;;;;;;5075216;28;20111;-63
2023/12/27 01:27:35;;;;;;;59.85;39.03;;;8.10;79.70;;;;;;5075011;28;20459;-63
2023/12/27 01:30:01;;;;;;;62.22;38.75;;;8.10;79.70;;;;;;5074915;28;20020;-63
2023/12/27 01:32:27;;;;;;;63.30;40.42;;;8.10;79.70;;;;;;5074950;28;20063;-63
2023/12/27 01:34:53;;;;;;;61.50;38.83;;;8.00;79.70;;;;;;5074894;28;20044;-63
2023/12/27 01:37:18;;;;;;;61.35;39.05;;;8.00;79.70;;;;;;5074891;28;20054;-63
2023/12/27 01:39:44;;;;;;;65.60;40.35;;;8.00;79.80;;;;;;5074896;28;20027;-63
2023/12/27 01:42:10;;;;;;;68.10;40.35;;;8.00;79.80;;;;;;5076484;28;20029;-63
2023/12/27 01:44:36;;;;;;;62.10;37.95;;;8.00;79.80;;;;;;5078691;28;20024;-63
2023/12/27 01:47:02;;;;;;;60.40;39.35;;;8.00;79.80;;;;;;5079231;28;20024;-63
2023/12/27 01:49:28;;;;;;;67.30;40.55;;;8.00;79.80;;;;;;5078596;28;20051;-63
2023/12/27 01:51:54;;;;;;;56.95;35.30;;;8.00;79.80;;;;;;5078631;28;20056;-63
2023/12/27 01:54:21;;;;;;;67.75;39.10;;;8.00;79.80;;;;;;5077398;28;20051;-63
2023/12/27 01:56:49;;;;;;;61.10;38.30;;;8.00;79.90;;;;;;5078518;28;20020;-63
2023/12/27 01:59:15;;;;;;;60.72;38.95;;;8.00;79.80;;;;;;5078685;28;20040;-63
2023/12/27 02:01:41;;;;;;;66.15;41.83;;;8.00;79.80;;;;;;5078935;28;20333;-63
2023/12/27 02:04:07;;;;;;;59.47;37.08;;;8.00;79.80;;;;;;5078682;28;20035;-63
2023/12/27 02:06:34;;;;;;;54.95;34.92;;;8.00;79.70;;;;;;5078576;28;20028;-63
2023/12/27 02:09:00;;;;;;;53.08;33.85;;;8.00;79.80;;;;;;5078458;28;20361;-63
2023/12/27 02:11:26;;;;;;;59.45;35.92;;;8.00;79.70;;;;;;5078201;28;20097;-63
2023/12/27 02:13:52;;;;;;;49.92;30.70;;;8.00;79.70;;;;;;5078119;28;20146;-63
2023/12/27 02:16:20;;;;;;;48.30;28.50;;;8.10;79.60;;;;;;5078396;28;20032;-63
2023/12/27 02:18:47;;;;;;;42.53;25.23;;;8.10;79.60;;;;;;5078327;28;20054;-63
2023/12/27 02:21:13;;;;;;;40.90;25.13;;;8.10;79.70;;;;;;5078070;28;20400;-63
2023/12/27 02:23:42;;;;;;;41.17;26.52;;;8.20;79.60;;;;;;5077918;28;20048;-63
2023/12/27 02:26:09;;;;;;;40.85;25.85;;;8.20;79.50;;;;;;5078489;28;20396;-63
2023/12/27 02:28:35;;;;;;;48.65;29.40;;;8.20;79.30;;;;;;5078116;28;20078;-63
2023/12/27 02:31:01;;;;;;;51.47;33.75;;;8.20;79.20;;;;;;5078131;28;20029;-63
2023/12/27 02:33:27;;;;;;;50.15;30.98;;;8.20;79.00;;;;;;5077860;28;20094;-63
2023/12/27 02:35:53;;;;;;;45.95;31.48;;;8.20;78.90;;;;;;5077704;28;20024;-63
2023/12/27 02:38:19;;;;;;;50.05;31.80;;;8.10;79.00;;;;;;5077986;28;20036;-63
2023/12/27 02:40:44;;;;;;;52.13;33.58;;;8.10;79.00;;;;;;5077679;28;20032;-63
2023/12/27 02:43:10;;;;;;;51.47;33.30;;;8.10;78.90;;;;;;5077661;28;20020;-63
2023/12/27 02:45:36;;;;;;;57.70;33.92;;;8.00;78.90;;;;;;5077553;28;20432;-63
2023/12/27 02:48:03;;;;;;;62.55;39.65;;;8.00;78.90;;;;;;5077843;28;20275;-63
2023/12/27 02:50:28;;;;;;;62.80;36.53;;;7.90;79.00;;;;;;5077670;28;20024;-63
2023/12/27 02:52:54;;;;;;;57.78;35.40;;;7.90;79.00;;;;;;5077604;28;20036;-63
2023/12/27 02:55:20;;;;;;;55.08;34.38;;;7.90;78.90;;;;;;5076855;28;20040;-63
2023/12/27 02:57:46;;;;;;;54.08;33.50;;;7.80;78.80;;;;;;5077609;28;20039;-63
2023/12/27 03:00:13;;;;;;;46.42;29.15;;;7.80;78.90;;;;;;5077336;28;20394;-63
2023/12/27 03:02:38;;;;;;;41.67;26.20;;;7.70;78.90;;;;;;5077356;28;20029;-63
2023/12/27 03:05:05;;;;;;;31.60;19.25;;;7.80;78.90;;;;;;5077156;28;20491;-63
2023/12/27 03:07:30;;;;;;;28.00;18.92;;;7.80;78.90;;;;;;5077210;28;20036;-63
2023/12/27 03:09:57;;;;;;;27.42;16.65;;;7.80;78.60;;;;;;5077087;28;20079;-63
2023/12/27 03:12:23;;;;;;;21.83;13.50;;;7.90;78.50;;;;;;5077633;28;20032;-63
2023/12/27 03:14:50;;;;;;;21.90;13.38;;;7.90;78.20;;;;;;5077264;28;20322;-63
2023/12/27 03:17:16;;;;;;;22.20;12.95;;;8.00;78.10;;;;;;5077007;28;20025;-63
2023/12/27 03:19:42;;;;;;;19.45;11.93;;;8.10;77.60;;;;;;5076900;28;20130;-64
2023/12/27 03:22:08;;;;;;;27.30;15.25;;;8.10;77.90;;;;;;5076852;28;20104;-63
2023/12/27 03:24:34;;;;;;;26.20;16.30;;;8.20;77.60;;;;;;5077332;28;20067;-63
2023/12/27 03:27:00;;;;;;;28.42;17.48;;;8.20;77.50;;;;;;5075867;28;20079;-63
2023/12/27 03:29:26;;;;;;;29.50;19.30;;;8.20;77.40;;;;;;5076732;28;20464;-63
2023/12/27 03:31:52;;;;;;;32.55;20.20;;;8.20;77.20;;;;;;5076989;28;20051;-63
2023/12/27 03:34:18;;;;;;;36.47;21.73;;;8.10;76.90;;;;;;5076605;28;20139;-63
2023/12/27 03:36:43;;;;;;;37.33;22.52;;;8.10;76.90;;;;;;5076599;28;20035;-63
2023/12/27 03:39:10;;;;;;;40.55;23.15;;;8.10;76.90;;;;;;5076553;28;20032;-63
2023/12/27 03:41:35;;;;;;;39.10;25.15;;;8.00;76.90;;;;;;5076589;28;20028;-63
2023/12/27 03:44:01;;;;;;;39.38;24.70;;;7.90;77.00;;;;;;5076423;28;20356;-63
2023/12/27 03:46:27;;;;;;;38.28;24.92;;;7.90;77.10;;;;;;5076654;28;20047;-63
2023/12/27 03:48:53;;;;;;;39.30;24.60;;;7.70;77.10;;;;;;5076491;28;20440;-63
2023/12/27 03:51:22;;;;;;;46.03;28.02;;;7.60;77.20;;;;;;5076328;28;20035;-64
2023/12/27 03:53:48;;;;;;;44.90;26.80;;;7.50;77.40;;;;;;5076150;28;20021;-63
2023/12/27 03:56:14;;;;;;;38.33;25.95;;;7.50;77.40;;;;;;5076005;28;20476;-63
2023/12/27 03:58:44;;;;;;;46.72;29.55;;;7.50;77.50;;;;;;5076710;28;20020;-63
2023/12/27 04:01:10;;;;;;;47.80;29.70;;;7.40;77.60;;;;;;5076361;28;20032;-63
2023/12/27 04:03:37;;;;;;;49.58;31.83;;;7.30;77.60;;;;;;5076289;28;20051;-63
2023/12/27 04:06:03;;;;;;;49.33;30.33;;;7.30;77.70;;;;;;5075078;28;20364;-63
2023/12/27 04:08:29;;;;;;;52.42;32.13;;;7.30;77.90;;;;;;5076622;28;20028;-63
2023/12/27 04:10:55;;;;;;;48.40;31.42;;;7.30;78.00;;;;;;5075967;28;20111;-63
2023/12/27 04:13:21;;;;;;;52.65;31.75;;;7.20;78.00;;;;;;5076148;28;20024;-63
2023/12/27 04:15:46;;;;;;;51.42;31.20;;;7.20;78.00;;;;;;5075775;28;20444;-63
2023/12/27 04:18:12;;;;;;;47.63;27.77;;;7.10;78.20;;;;;;5075830;28;20024;-63
2023/12/27 04:20:38;;;;;;;49.25;27.90;;;7.10;78.40;;;;;;5075755;28;20031;-63
2023/12/27 04:23:04;;;;;;;45.13;28.13;;;7.20;78.50;;;;;;5075803;28;20070;-63
2023/12/27 04:25:30;;;;;;;49.13;29.05;;;7.20;78.60;;;;;;5075697;28;20028;-63
2023/12/27 04:27:56;;;;;;;44.85;25.92;;;7.20;78.70;;;;;;5075928;28;20024;-63
2023/12/27 04:30:22;;;;;;;46.80;27.83;;;7.20;78.70;;;;;;5075862;28;20445;-63
2023/12/27 04:32:48;;;;;;;45.15;28.00;;;7.20;78.80;;;;;;5075608;28;20070;-63
2023/12/27 04:35:14;;;;;;;44.47;27.55;;;7.20;78.70;;;;;;5075500;28;20029;-64
2023/12/27 04:37:40;;;;;;;39.38;24.85;;;7.20;78.80;;;;;;5075574;28;20028;-63
2023/12/27 04:40:07;;;;;;;41.78;26.33;;;7.20;78.70;;;;;;5075759;28;20048;-64
2023/12/27 04:42:33;;;;;;;40.60;26.02;;;7.20;78.60;;;;;;5075694;28;20043;-63
2023/12/27 04:44:59;;;;;;;48.05;27.70;;;7.20;78.60;;;;;;5075421;28;20032;-63
2023/12/27 04:47:25;;;;;;;41.85;26.10;;;7.20;78.60;;;;;;5075986;28;20021;-63
2023/12/27 04:49:51;;;;;;;48.97;28.08;;;7.10;78.60;;;;;;5075277;28;20025;-63
2023/12/27 04:52:17;;;;;;;44.35;27.58;;;7.10;78.50;;;;;;5074398;28;20035;-63
2023/12/27 04:54:44;;;;;;;48.88;28.55;;;7.10;78.60;;;;;;5075171;28;20063;-63
2023/12/27 04:57:10;;;;;;;45.25;26.17;;;7.10;78.60;;;;;;5075543;28;20050;-64
2023/12/27 04:59:36;;;;;;;53.15;30.73;;;7.10;78.60;;;;;;5075310;28;20029;-64
2023/12/27 05:02:02;;;;;;;47.80;27.90;;;7.10;78.40;;;;;;5075511;28;20025;-64
2023/12/27 05:04:28;;;;;;;46.47;28.30;;;7.10;78.50;;;;;;5075560;28;20446;-64
2023/12/27 05:06:54;;;;;;;47.28;29.02;;;7.00;78.50;;;;;;5075162;28;20028;-64
2023/12/27 05:09:20;;;;;;;47.72;28.60;;;6.90;78.50;;;;;;5075668;28;20112;-64
2023/12/27 05:11:46;;;;;;;51.45;30.95;;;6.90;78.50;;;;;;5075163;28;20146;-64
2023/12/27 05:14:14;;;;;;;43.88;28.20;;;6.90;78.50;;;;;;5075355;28;20028;-65
2023/12/27 05:16:40;;;;;;;46.08;28.83;;;6.90;78.50;;;;;;5076010;28;20426;-64
2023/12/27 05:19:06;;;;;;;50.08;30.55;;;6.90;78.60;;;;;;5079526;28;20021;-65
2023/12/27 05:21:32;;;;;;;47.15;28.55;;;6.90;78.70;;;;;;5079187;28;20020;-64
2023/12/27 05:23:58;;;;;;;45.92;29.05;;;6.90;78.70;;;;;;5079097;28;20441;-64
2023/12/27 05:26:25;;;;;;;43.28;26.95;;;6.90;78.90;;;;;;5078793;28;20074;-64
2023/12/27 05:28:50;;;;;;;49.92;30.55;;;6.90;79.00;;;;;;5079780;28;20082;-64
2023/12/27 05:31:16;;;;;;;44.72;27.95;;;6.90;79.10;;;;;;5079101;28;20025;-64
2023/12/27 05:33:43;;;;;;;50.85;31.38;;;6.90;79.10;;;;;;5078551;28;20448;-64
2023/12/27 05:36:09;;;;;;;43.33;27.13;;;6.90;79.20;;;;;;5078891;28;20050;-64
2023/12/27 05:38:36;;;;;;;42.25;27.00;;;6.90;79.20;;;;;;5079174;28;20035;-64
2023/12/27 05:41:03;;;;;;;48.78;29.88;;;6.90;79.20;;;;;;5078828;28;20400;-64
2023/12/27 05:43:29;;;;;;;44.55;26.85;;;6.90;79.50;;;;;;5078747;28;20066;-64
2023/12/27 05:45:55;;;;;;;44.17;27.73;;;6.90;79.50;;;;;;5079192;28;20032;-64
2023/12/27 05:48:21;;;;;;;45.97;26.92;;;7.00;79.60;;;;;;5078915;28;20091;-64
2023/12/27 05:50:47;;;;;;;45.53;27.90;;;7.00;79.60;;;;;;5078684;28;20028;-64
2023/12/27 05:53:13;;;;;;;49.80;28.80;;;7.10;79.50;;;;;;5078892;28;20024;-64
2023/12/27 05:55:39;;;;;;;44.38;27.58;;;7.10;79.50;;;;;;5078359;28;20041;-64
2023/12/27 05:58:05;;;;;;;41.53;26.17;;;7.10;79.50;;;;;;5078796;28;20029;-64
2023/12/27 06:00:31;;;;;;;39.80;24.08;;;7.10;79.50;;;;;;5079000;28;20024;-64
2023/12/27 06:02:57;;;;;;;42.28;26.33;;;7.10;79.60;;;;;;5078706;28;20412;-64
2023/12/27 06:05:23;;;;;;;43.50;26.45;;;7.20;79.60;;;;;;5078582;28;20082;-64
2023/12/27 06:07:49;;;;;;;43.03;25.42;;;7.20;79.50;;;;;;5078375;28;20029;-64
2023/12/27 06:10:15;;;;;;;42.15;26.40;;;7.20;79.60;;;;;;5078483;28;20021;-66
2023/12/27 06:12:41;;;;;;;38.90;24.08;;;7.20;79.70;;;;;;5078504;28;20031;-64
2023/12/27 06:15:09;;;;;;;41.10;26.27;;;7.20;79.60;;;;;;5078153;28;20023;-64
2023/12/27 06:17:36;;;;;;;39.95;24.48;;;7.20;79.60;;;;;;5078091;28;20044;-64
2023/12/27 06:20:04;;;;;;;37.25;22.48;;;7.20;79.70;;;;;;5077137;28;20024;-64
2023/12/27 06:22:30;;;;;;;37.38;22.05;;;7.30;79.80;;;;;;5078004;28;20445;-64
2023/12/27 06:24:55;;;;;;;38.42;23.00;;;7.30;79.90;;;;;;5077972;28;20077;-64
2023/12/27 06:27:21;;;;;;;36.85;21.90;;;7.40;80.00;;;;;;5077976;28;20107;-64
2023/12/27 06:29:48;;;;;;;39.67;23.90;;;7.40;79.80;;;;;;5077291;28;20337;-64
2023/12/27 06:32:14;;;;;;;40.90;25.20;;;7.40;79.70;;;;;;5078156;28;20111;-64
2023/12/27 06:34:40;;;;;;;45.10;26.50;;;7.50;79.80;;;;;;5076786;28;20035;-65
2023/12/27 06:37:06;;;;;;;41.03;24.67;;;7.50;79.60;;;;;;5077820;28;20369;-64
2023/12/27 06:39:32;;;;;;;44.15;24.60;;;7.50;79.60;;;;;;5077791;28;20031;-64
2023/12/27 06:41:58;;;;;;;44.10;26.70;;;7.50;79.60;;;;;;5077629;28;20043;-64
2023/12/27 06:44:24;;;;;;;40.97;24.33;;;7.50;79.60;;;;;;5078090;28;20029;-64
2023/12/27 06:46:50;;;;;;;40.35;24.23;;;7.50;79.50;;;;;;5078189;28;20054;-64
2023/12/27 06:49:16;;;;;;;38.53;25.33;;;7.50;79.60;;;;;;5077772;28;20080;-64
2023/12/27 06:51:42;;;;;;;46.70;27.77;;;7.60;79.50;;;;;;5077458;28;20024;-64
2023/12/27 06:54:08;;;;;;;43.42;28.50;;;7.60;79.50;;;;;;5077611;28;20021;-64
2023/12/27 06:56:38;;;;;;;48.22;30.15;;;7.60;79.40;;;;;;5077430;28;20437;-64
2023/12/27 06:59:04;;;;;;;48.22;28.42;;;7.60;79.40;;;;;;5077338;28;20036;-64
2023/12/27 07:01:30;;;;;;;41.40;26.48;;;7.60;79.40;;;;;;5077342;28;20054;-64
2023/12/27 07:03:56;;;;;;;44.17;27.73;;;7.60;79.40;;;;;;5076278;28;20528;-64
2023/12/27 07:06:22;;;;;;;48.13;29.42;;;7.60;79.40;;;;;;5077305;28;20021;-64
2023/12/27 07:08:48;;;;;;;46.20;30.05;;;7.60;79.40;;;;;;5077663;28;20102;-64
2023/12/27 07:11:20;;;;;;;50.95;29.95;;;7.60;79.50;;;;;;5076242;28;20029;-64
2023/12/27 07:13:47;;;;;;;49.65;30.70;;;7.60;79.40;;;;;;5077036;28;20025;-64
2023/12/27 07:16:14;;;;;;;56.45;33.13;;;7.60;79.60;;;;;;5077046;28;20016;-64
2023/12/27 07:18:42;;;;;;;50.90;31.00;;;7.70;79.50;;;;;;5077312;28;20028;-64
2023/12/27 07:21:08;;;;;;;47.42;29.08;;;7.70;79.50;;;;;;5077209;28;20551;-65
2023/12/27 07:23:34;;;;;;;46.13;27.00;;;7.70;79.60;;;;;;5076866;28;20100;-64
2023/12/27 07:26:00;;;;;;;44.10;28.05;;;7.70;79.60;;;;;;5076933;28;20071;-65
2023/12/27 07:28:27;;;;;;;48.80;28.98;;;7.80;79.70;;;;;;5077275;28;20024;-64
2023/12/27 07:30:53;;;;;;;47.08;29.23;;;7.80;79.70;;;;;;5076718;28;20021;-64
2023/12/27 07:33:19;;;;;;;50.65;27.50;;;7.90;79.80;;;;;;5076639;28;20020;-64
2023/12/27 07:35:48;;;;;;;39.85;25.15;;;7.90;79.70;;;;;;5076562;28;20099;-64
2023/12/27 07:38:14;;;;;;;40.55;25.15;;;7.90;79.60;;;;;;5076508;28;20029;-64
2023/12/27 07:40:41;;;;;;;38.17;24.23;;;7.90;79.70;;;;;;5076785;28;20111;-64
2023/12/27 07:43:09;;;;;;;40.10;24.15;;;8.00;79.60;;;;;;5076959;28;20056;-64
2023/12/27 07:45:36;;;;;;;36.83;22.98;;;8.00;79.60;;;;;;5076512;28;20453;-64
2023/12/27 07:48:03;;;;;;;40.13;23.88;;;8.00;79.60;;;;;;5075375;28;20032;-63
2023/12/27 07:50:29;;;;;;;47.58;29.58;;;8.10;79.60;;;;;;5076222;28;20442;-63
2023/12/27 07:52:54;;;;;;;43.50;26.58;;;8.20;79.60;;;;;;5076262;28;20082;-63
2023/12/27 07:55:20;;;;;;;40.35;26.60;;;8.20;79.50;;;;;;5075805;28;20483;-64
2023/12/27 07:57:47;;;;;;;43.05;26.45;;;8.20;79.50;;;;;;5076081;28;20031;-63
2023/12/27 08:00:17;;;;;;;40.67;25.30;;;8.20;79.50;;;;;;5076035;28;20157;-63
2023/12/27 08:02:43;;;;;;;40.83;24.40;;;8.30;79.60;;;;;;5076339;28;20112;-63
2023/12/27 08:05:10;;;;;;;40.25;24.73;;;8.30;79.50;;;;;;5076068;28;20464;-63
2023/12/27 08:07:35;;;;;;;43.67;26.60;;;8.30;79.50;;;;;;5076160;28;20036;-63
2023/12/27 08:10:02;;;;;;;50.50;29.73;;;8.40;79.50;;;;;;5076083;28;20103;-63
2023/12/27 08:12:28;;;;;;;52.97;31.27;;;8.40;79.60;;;;;;5075821;28;20025;-63
2023/12/27 08:14:54;;;;;;;54.15;34.28;;;8.40;79.60;;;;;;5075678;28;20395;-63
2023/12/27 08:17:20;;;;;;;50.40;29.88;;;8.50;79.50;;;;;;5075809;28;20021;-63
2023/12/27 08:19:46;;;;;;;49.13;30.23;;;8.40;79.50;;;;;;5076010;28;20067;-64
2023/12/27 08:22:12;;;;;;;49.47;29.40;;;8.50;79.60;;;;;;5076229;28;20452;-63
2023/12/27 08:24:38;;;;;;;44.78;27.33;;;8.50;79.60;;;;;;5075605;28;20095;-63
2023/12/27 08:27:04;;;;;;;41.75;25.38;;;8.50;79.70;;;;;;5076169;28;20101;-63
2023/12/27 08:29:30;;;;;;;35.25;22.58;;;8.60;79.70;;;;;;5075740;28;20054;-63
2023/12/27 08:31:56;;;;;;;42.65;26.42;;;8.60;79.60;;;;;;5075557;28;20100;-64
2023/12/27 08:34:22;;;;;;;41.20;24.73;;;8.70;79.70;;;;;;5075418;28;20423;-64
2023/12/27 08:36:48;;;;;;;36.75;23.08;;;8.70;79.50;;;;;;5074502;28;20020;-64
2023/12/27 08:39:15;;;;;;;41.55;24.92;;;8.80;79.60;;;;;;5075712;28;20029;-64
2023/12/27 08:41:41;;;;;;;38.50;23.00;;;8.80;79.50;;;;;;5075406;28;20035;-64
2023/12/27 08:44:07;;;;;;;41.03;23.27;;;8.80;79.50;;;;;;5075307;28;20044;-63
2023/12/27 08:46:34;;;;;;;40.47;23.25;;;8.90;79.50;;;;;;5075393;28;20346;-64
2023/12/27 08:49:00;;;;;;;42.90;25.92;;;8.90;79.50;;;;;;5075313;28;20020;-65
2023/12/27 08:51:26;;;;;;;41.58;23.80;;;8.90;79.50;;;;;;5074971;28;20028;-64
2023/12/27 08:53:51;;;;;;;36.55;22.88;;;9.00;79.50;;;;;;5075445;28;20458;-64
2023/12/27 08:56:17;;;;;;;43.85;26.20;;;9.00;79.60;;;;;;5075090;28;20040;-65
2023/12/27 08:58:43;;;;;;;40.10;24.95;;;9.10;79.70;;;;;;5075229;28;20017;-65
2023/12/27 09:01:09;;;;;;;41.47;23.70;;;9.10;79.60;;;;;;5075511;28;20027;-65
2023/12/27 09:03:35;;;;;;;39.55;21.33;;;9.20;79.50;;;;;;5075118;28;20031;-65
2023/12/27 09:06:01;;;;;;;38.40;23.25;;;9.20;79.40;;;;;;5075162;28;20024;-65
2023/12/27 09:08:28;;;;;;;40.40;22.55;;;9.30;79.50;;;;;;5075545;28;20042;-65
2023/12/27 09:10:54;;;;;;;41.50;21.85;;;9.30;79.40;;;;;;5075601;28;20025;-65
2023/12/27 09:13:21;;;;;;;38.00;20.50;;;9.40;79.40;;;;;;5362147;22;20446;-73
2023/12/27 09:15:48;;;;;;;34.85;19.23;;;9.40;79.30;;;;;;5075122;28;20067;-72
2023/12/27 09:18:14;;;;;;;31.08;17.50;;;9.50;79.30;;;;;;5075603;28;20020;-72
2023/12/27 09:20:40;;;;;;;23.70;14.60;;;9.50;79.30;;;;;;5075594;28;20024;-72
2023/12/27 09:23:07;;;;;;;27.45;15.10;;;9.60;78.90;;;;;;5074869;28;20353;-73
2023/12/27 09:25:33;;;;;;;25.45;15.15;;;9.70;78.60;;;;;;5073994;28;20033;-72
2023/12/27 09:28:00;;;;;;;24.08;15.10;;;9.80;78.20;;;;;;5075483;28;20024;-73
2023/12/27 09:30:26;;;;;;;22.02;14.20;;;9.80;77.90;;;;;;5074817;28;20357;-72
2023/12/27 09:32:52;;;;;;;27.77;16.40;;;9.90;77.80;;;;;;5074867;28;20020;-72
2023/12/27 09:35:20;;;;;;;26.55;16.10;;;9.90;77.60;;;;;;5074777;28;20028;-72
2023/12/27 09:37:46;;;;;;;23.05;13.93;;;10.00;77.20;;;;;;5075318;28;20025;-73
2023/12/27 09:40:13;;;;;;;21.02;13.07;;;10.00;76.90;;;;;;5075114;28;20031;-71
2023/12/27 09:42:40;;;;;;;24.58;13.77;;;10.10;76.60;;;;;;5074745;28;20032;-72
2023/12/27 09:45:10;;;;;;;23.52;14.20;;;10.10;76.50;;;;;;5074766;28;20028;-72
2023/12/27 09:47:40;;;;;;;22.25;13.73;;;10.20;75.40;;;;;;5074978;28;20028;-73
2023/12/27 09:50:06;;;;;;;25.52;15.05;;;10.20;76.00;;;;;;5075152;28;20035;-72
2023/12/27 09:52:36;;;;;;;26.02;13.95;;;10.20;74.70;;;;;;5074901;28;20342;-72
2023/12/27 09:55:02;;;;;;;24.65;14.63;;;10.30;75.00;;;;;;5073644;28;20031;-72
2023/12/27 09:57:30;;;;;;;24.13;14.43;;;10.40;74.90;;;;;;5075179;28;20025;-72
2023/12/27 09:59:59;;;;;;;22.10;14.10;;;10.40;74.20;;;;;;5075117;28;20087;-72
2023/12/27 10:02:28;;;;;;;22.17;12.90;;;10.40;74.70;;;;;;5074029;28;20504;-73
2023/12/27 10:05:18;;;;;;;25.65;13.82;;;10.50;74.60;;;;;;5078285;28;20418;-72
2023/12/27 10:07:44;;;;;;;26.17;13.82;;;10.60;74.40;;;;;;5078019;28;20379;-74
2023/12/27 10:10:10;;;;;;;28.05;14.80;;;10.70;74.70;;;;;;5078109;28;20024;-72
2023/12/27 10:12:37;;;;;;;24.83;14.85;;;10.70;74.20;;;;;;5078141;28;20025;-72
2023/12/27 10:15:04;;;;;;;23.00;13.98;;;10.80;74.20;;;;;;5078684;28;20496;-72
2023/12/27 10:17:31;;;;;;;24.90;14.35;;;10.90;74.20;;;;;;5078053;28;20074;-72
2023/12/27 10:19:57;;;;;;;24.00;13.98;;;10.90;73.10;;;;;;5077212;28;20094;-72
2023/12/27 10:22:23;;;;;;;24.15;14.05;;;11.00;73.40;;;;;;5077975;28;20025;-72
2023/12/27 10:24:50;;;;;;;23.98;13.68;;;11.10;72.00;;;;;;5077923;28;20103;-72
2023/12/27 10:27:17;;;;;;;22.52;12.23;;;11.10;71.20;;;;;;5078437;28;20056;-72
2023/12/27 10:29:47;;;;;;;19.15;11.88;;;11.20;71.10;;;;;;5078112;28;20035;-72
2023/12/27 10:32:18;;;;;;;21.58;12.68;;;11.20;71.40;;;;;;5077809;28;20032;-73
2023/12/27 10:34:45;;;;;;;19.27;11.52;;;11.20;71.10;;;;;;5078440;28;20476;-73
2023/12/27 10:37:12;;;;;;;20.27;11.65;;;11.30;72.00;;;;;;5077727;28;20020;-73
2023/12/27 10:39:46;;;;;;;18.92;11.75;;;11.40;72.40;;;;;;5076738;28;20039;-72
2023/12/27 10:42:16;;;;;;;18.25;11.07;;;11.40;72.40;;;;;;5077142;28;20036;-72
2023/12/27 10:44:48;;;;;;;18.75;11.00;;;11.50;72.30;;;;;;5077956;28;20035;-72
2023/12/27 10:47:17;;;;;;;22.70;12.30;;;11.60;72.50;;;;;;5077935;28;20031;-72
2023/12/27 10:49:47;;;;;;;19.70;11.40;;;11.70;72.70;;;;;;5076824;28;20085;-73
2023/12/27 10:52:16;;;;;;;18.15;11.73;;;11.70;72.10;;;;;;5077428;28;20017;-72
2023/12/27 10:54:46;;;;;;;17.88;10.85;;;11.90;72.20;;;;;;5077770;28;20032;-73
2023/12/27 10:57:19;;;;;;;21.42;12.00;;;11.90;72.10;;;;;;5077737;28;20033;-72
2023/12/27 10:59:47;;;;;;;25.95;15.35;;;12.00;72.00;;;;;;5077422;28;20480;-73
2023/12/27 11:02:13;;;;;;;30.75;17.67;;;12.10;72.10;;;;;;5360776;22;20211;-69
2023/12/27 11:04:43;;;;;;;32.40;18.67;;;12.10;72.50;;;;;;5057778;28;20029;-69
2023/12/27 11:07:10;;;;;;;27.77;17.88;;;12.20;72.80;;;;;;5057457;28;20025;-70
2023/12/27 11:09:39;;;;;;;27.27;17.60;;;12.20;73.00;;;;;;5057341;28;20037;-70
2023/12/27 11:12:08;;;;;;;35.10;20.75;;;12.30;73.10;;;;;;5067519;28;20031;-70
2023/12/27 11:14:37;;;;;;;36.22;22.05;;;12.30;73.10;;;;;;5075820;28;20032;-70
2023/12/27 11:17:06;;;;;;;37.60;21.67;;;12.40;73.00;;;;;;5076989;28;20179;-69
2023/12/27 11:19:33;;;;;;;29.75;19.15;;;12.40;73.00;;;;;;5076925;28;20118;-70
2023/12/27 11:21:59;;;;;;;26.42;17.55;;;12.40;72.80;;;;;;5076837;28;20372;-71
2023/12/27 11:24:27;;;;;;;28.00;17.75;;;12.40;72.90;;;;;;5076748;28;20039;-71
2023/12/27 11:27:01;;;;;;;27.30;17.50;;;12.40;72.70;;;;;;5077546;28;20468;-71
2023/12/27 11:29:29;;;;;;;31.30;19.70;;;12.40;72.70;;;;;;5076914;28;20029;-71
2023/12/27 11:31:58;;;;;;;30.77;19.67;;;12.50;72.50;;;;;;5076589;28;20013;-71
2023/12/27 11:34:25;;;;;;;29.65;18.38;;;12.50;72.60;;;;;;5076851;28;20348;-70
2023/12/27 11:36:51;;;;;;;32.80;19.67;;;12.50;72.70;;;;;;5077146;28;20100;-71
2023/12/27 11:39:29;;;;;;;26.92;17.73;;;12.60;72.70;;;;;;5076565;28;20056;-71
2023/12/27 11:41:57;;;;;;;29.92;18.67;;;12.60;72.80;;;;;;5076734;28;20040;-69
2023/12/27 11:44:23;;;;;;;29.35;18.92;;;12.60;72.50;;;;;;5076988;28;20078;-70
2023/12/27 11:46:49;;;;;;;29.67;19.55;;;12.60;72.60;;;;;;5076905;28;20043;-70
2023/12/27 11:49:19;;;;;;;30.38;19.63;;;12.60;72.60;;;;;;5076787;28;20031;-70
2023/12/27 11:51:46;;;;;;;31.50;18.60;;;12.70;72.40;;;;;;5076456;28;20020;-70
2023/12/27 11:54:26;;;;;;;32.05;19.45;;;12.70;72.50;;;;;;5076510;28;20021;-69
2023/12/27 11:56:56;;;;;;;29.02;19.63;;;12.70;72.50;;;;;;5076756;28;20021;-69
2023/12/27 11:59:22;;;;;;;34.33;23.70;;;12.70;72.50;;;;;;5075253;28;20055;-69
2023/12/27 12:01:52;;;;;;;32.80;21.08;;;12.80;72.50;;;;;;5075807;28;20052;-70
2023/12/27 12:04:27;;;;;;;27.55;18.00;;;12.80;72.50;;;;;;5076013;28;20074;-70
2023/12/27 12:07:02;;;;;;;28.30;18.45;;;12.80;72.50;;;;;;5075232;28;20526;-70
2023/12/27 12:09:35;;;;;;;31.33;19.58;;;12.80;72.40;;;;;;5074891;28;20036;-69
2023/12/27 12:12:17;;;;;;;30.75;19.35;;;12.80;72.20;;;;;;5076042;28;20016;-70
2023/12/27 12:14:44;;;;;;;30.00;20.00;;;12.80;71.80;;;;;;5076405;28;20017;-69
2023/12/27 12:17:13;;;;;;;32.65;20.00;;;12.80;72.00;;;;;;5075184;28;20033;-70
2023/12/27 12:19:39;;;;;;;31.63;19.55;;;12.80;71.90;;;;;;5075988;28;20059;-70
2023/12/27 12:22:06;;;;;;;30.00;19.35;;;12.80;71.60;;;;;;5075589;28;20028;-69
2023/12/27 12:24:35;;;;;;;31.73;19.92;;;12.90;71.40;;;;;;5075709;28;20123;-70
2023/12/27 12:27:02;;;;;;;28.73;18.75;;;12.90;71.40;;;;;;5074807;28;20086;-70
2023/12/27 12:29:30;;;;;;;33.00;20.40;;;12.90;71.30;;;;;;5075538;28;20024;-69
2023/12/27 12:34:25;;;;;;;27.67;18.05;;;12.90;70.70;;;;;;5387429;22;20088;-72
2023/12/27 12:36:56;;;;;;;34.08;21.65;;;12.90;70.80;;;;;;5075521;28;20032;-72